createdAt,value
2018-08-31T00:02:12.493Z,15.80
2018-08-31T00:04:52.179Z,15.70
2018-08-31T00:07:32.852Z,15.70
2018-08-31T00:10:40.416Z,15.60
2018-08-31T00:13:10.640Z,15.60
2018-08-31T00:15:38.838Z,15.50
2018-08-31T00:18:07.066Z,15.60
2018-08-31T00:20:35.318Z,15.40
2018-08-31T00:23:03.538Z,15.40
2018-08-31T00:26:10.405Z,15.40
2018-08-31T00:28:51.046Z,15.40
2018-08-31T00:33:37.704Z,15.40
2018-08-31T00:40:23.796Z,15.40
2018-08-31T00:43:04.236Z,15.60
2018-08-31T00:45:33.802Z,15.30
2018-08-31T00:48:02.702Z,15.20
2018-08-31T00:50:31.163Z,15.20
2018-08-31T00:52:59.655Z,15.30
2018-08-31T00:55:27.941Z,15.30
2018-08-31T00:57:56.126Z,15.30
2018-08-31T01:00:24.325Z,15.30
2018-08-31T01:02:52.584Z,15.20
2018-08-31T01:05:20.911Z,15.30
2018-08-31T01:07:50.475Z,15.40
2018-08-31T01:10:24.000Z,15.30
2018-08-31T01:12:52.942Z,15.30
2018-08-31T01:15:21.214Z,15.50
2018-08-31T01:17:49.458Z,15.50
2018-08-31T01:20:17.683Z,15.50
2018-08-31T01:22:46.146Z,15.40
2018-08-31T01:25:14.388Z,15.40
2018-08-31T01:27:42.562Z,15.40
2018-08-31T01:30:10.776Z,15.50
2018-08-31T01:32:39.019Z,15.50
2018-08-31T01:35:07.315Z,15.50
2018-08-31T01:37:35.527Z,15.50
2018-08-31T01:40:03.766Z,15.60
2018-08-31T01:42:31.980Z,15.60
2018-08-31T01:45:00.183Z,15.60
2018-08-31T01:47:28.415Z,15.50
2018-08-31T01:49:56.589Z,15.40
2018-08-31T01:52:24.815Z,15.40
2018-08-31T01:54:53.014Z,15.20
2018-08-31T01:57:21.231Z,15.10
2018-08-31T01:59:49.395Z,15.10
2018-08-31T02:02:18.266Z,15.00
2018-08-31T02:04:46.510Z,15.00
2018-08-31T02:07:15.634Z,14.90
2018-08-31T02:09:44.585Z,14.90
2018-08-31T02:12:12.991Z,15.00
2018-08-31T02:14:41.227Z,15.20
2018-08-31T02:17:09.476Z,15.20
2018-08-31T02:19:37.883Z,15.20
2018-08-31T02:22:06.406Z,15.00
2018-08-31T02:24:34.634Z,14.90
2018-08-31T02:27:02.887Z,14.90
2018-08-31T02:29:31.101Z,14.90
2018-08-31T02:31:59.589Z,15.00
2018-08-31T02:34:27.790Z,15.00
2018-08-31T02:36:56.071Z,15.10
2018-08-31T02:39:24.357Z,15.10
2018-08-31T02:41:52.469Z,15.10
2018-08-31T02:44:20.667Z,15.10
2018-08-31T02:46:49.046Z,15.10
2018-08-31T02:49:17.304Z,15.20
2018-08-31T02:51:45.491Z,15.20
2018-08-31T02:54:13.687Z,15.20
2018-08-31T02:56:41.905Z,15.20
2018-08-31T02:59:10.148Z,15.10
2018-08-31T03:01:38.346Z,14.90
2018-08-31T03:04:06.597Z,14.80
2018-08-31T03:06:34.896Z,14.80
2018-08-31T03:09:03.216Z,14.70
2018-08-31T03:11:31.536Z,14.60
2018-08-31T03:13:59.734Z,14.50
2018-08-31T03:16:27.975Z,14.70
2018-08-31T03:18:56.259Z,14.60
2018-08-31T03:21:24.562Z,14.60
2018-08-31T03:23:52.646Z,14.60
2018-08-31T03:26:20.855Z,14.60
2018-08-31T03:28:49.219Z,14.50
2018-08-31T03:31:17.436Z,14.60
2018-08-31T03:33:45.780Z,14.60
2018-08-31T03:36:14.075Z,14.70
2018-08-31T03:38:42.238Z,14.70
2018-08-31T03:41:10.453Z,14.80
2018-08-31T03:43:38.612Z,14.80
2018-08-31T03:46:06.910Z,14.80
2018-08-31T03:48:35.099Z,14.80
2018-08-31T03:51:03.406Z,14.80
2018-08-31T03:53:31.602Z,14.90
2018-08-31T03:55:59.828Z,14.90
2018-08-31T03:58:27.993Z,15.00
2018-08-31T04:00:56.203Z,15.00
2018-08-31T04:03:24.482Z,15.00
2018-08-31T04:05:52.681Z,14.90
2018-08-31T04:08:20.863Z,14.80
2018-08-31T04:10:49.192Z,14.70
2018-08-31T04:13:17.423Z,14.70
2018-08-31T04:15:45.639Z,14.80
2018-08-31T04:18:13.861Z,14.90
2018-08-31T04:20:42.072Z,14.90
2018-08-31T04:23:10.268Z,14.90
2018-08-31T04:25:38.466Z,14.80
2018-08-31T04:28:06.704Z,14.80
2018-08-31T04:30:34.943Z,14.90
2018-08-31T04:33:03.205Z,14.90
2018-08-31T04:35:31.376Z,14.90
2018-08-31T04:37:59.614Z,14.90
2018-08-31T04:40:27.877Z,15.00
2018-08-31T04:42:56.065Z,14.90
2018-08-31T04:45:24.353Z,14.90
2018-08-31T04:47:52.561Z,14.90
2018-08-31T04:50:21.030Z,14.80
2018-08-31T04:52:49.440Z,14.80
2018-08-31T04:55:17.873Z,14.80
2018-08-31T04:57:46.030Z,14.80
2018-08-31T05:00:14.276Z,14.80
2018-08-31T05:02:42.550Z,14.80
2018-08-31T05:05:10.823Z,14.80
2018-08-31T05:07:39.047Z,14.80
2018-08-31T05:10:07.279Z,14.80
2018-08-31T05:12:35.522Z,14.70
2018-08-31T05:15:03.828Z,14.70
2018-08-31T05:17:32.137Z,14.70
2018-08-31T05:20:00.405Z,14.80
2018-08-31T05:22:28.851Z,14.90
2018-08-31T05:24:57.059Z,14.90
2018-08-31T05:27:25.373Z,15.00
2018-08-31T05:29:53.553Z,15.00
2018-08-31T05:32:21.761Z,15.10
2018-08-31T05:34:50.108Z,15.10
2018-08-31T05:37:18.289Z,15.10
2018-08-31T05:39:46.569Z,15.10
2018-08-31T05:42:14.813Z,15.00
2018-08-31T05:44:43.143Z,14.90
2018-08-31T05:47:11.338Z,15.00
2018-08-31T05:49:39.539Z,15.00
2018-08-31T05:52:07.805Z,14.90
2018-08-31T05:54:36.085Z,14.90
2018-08-31T05:57:04.552Z,15.10
2018-08-31T05:59:32.752Z,15.10
2018-08-31T06:02:01.372Z,15.10
2018-08-31T06:04:29.597Z,15.20
2018-08-31T06:06:57.890Z,15.40
2018-08-31T06:09:26.080Z,15.60
2018-08-31T06:11:54.338Z,15.70
2018-08-31T06:14:22.492Z,15.80
2018-08-31T06:16:50.739Z,15.90
2018-08-31T06:19:19.007Z,16.00
2018-08-31T06:21:47.205Z,16.00
2018-08-31T06:24:15.415Z,16.00
2018-08-31T06:26:43.647Z,15.90
2018-08-31T06:29:11.927Z,15.80
2018-08-31T06:31:40.144Z,15.90
2018-08-31T06:34:08.315Z,16.10
2018-08-31T06:36:36.514Z,16.30
2018-08-31T06:39:06.396Z,16.50
2018-08-31T06:41:34.646Z,16.70
2018-08-31T06:44:03.032Z,16.90
2018-08-31T06:46:31.213Z,16.90
2018-08-31T06:48:59.405Z,17.00
2018-08-31T06:51:27.732Z,17.30
2018-08-31T06:53:55.886Z,17.30
2018-08-31T06:56:24.123Z,17.40
2018-08-31T06:58:52.325Z,17.60
2018-08-31T07:01:20.519Z,17.80
2018-08-31T07:03:48.706Z,17.90
2018-08-31T07:06:16.879Z,17.90
2018-08-31T07:08:45.064Z,18.00
2018-08-31T07:11:13.282Z,18.20
2018-08-31T07:13:41.520Z,18.20
2018-08-31T07:16:09.688Z,18.40
2018-08-31T07:18:37.936Z,18.50
2018-08-31T07:21:06.191Z,18.60
2018-08-31T07:23:34.342Z,18.80
2018-08-31T07:26:02.571Z,18.80
2018-08-31T07:28:30.747Z,19.10
2018-08-31T07:30:58.898Z,19.30
2018-08-31T07:33:27.112Z,19.30
2018-08-31T07:35:55.292Z,19.40
2018-08-31T07:38:23.477Z,19.70
2018-08-31T07:40:51.678Z,19.70
2018-08-31T07:43:19.887Z,20.10
2018-08-31T07:45:48.087Z,19.60
2018-08-31T07:48:16.315Z,19.60
2018-08-31T07:50:44.535Z,19.90
2018-08-31T07:53:12.727Z,19.50
2018-08-31T07:55:40.950Z,19.40
2018-08-31T07:58:09.152Z,19.30
2018-08-31T08:00:37.380Z,19.30
2018-08-31T08:03:05.519Z,19.60
2018-08-31T08:05:33.805Z,19.90
2018-08-31T08:08:01.947Z,19.90
2018-08-31T08:10:30.146Z,19.80
2018-08-31T08:12:58.350Z,20.10
2018-08-31T08:15:26.521Z,20.50
2018-08-31T08:17:54.735Z,20.50
2018-08-31T08:20:23.397Z,20.60
2018-08-31T08:22:51.564Z,20.40
2018-08-31T08:25:19.772Z,20.60
2018-08-31T08:27:48.017Z,20.70
2018-08-31T08:30:16.239Z,20.30
2018-08-31T08:32:44.551Z,20.20
2018-08-31T08:35:12.729Z,19.80
2018-08-31T08:37:41.153Z,19.50
2018-08-31T08:40:09.356Z,19.80
2018-08-31T08:42:37.670Z,20.10
2018-08-31T08:45:06.150Z,20.60
2018-08-31T08:47:47.700Z,21.50
2018-08-31T08:50:15.896Z,21.90
2018-08-31T08:52:44.207Z,21.50
2018-08-31T08:55:12.421Z,21.70
2018-08-31T09:00:31.408Z,22.80
2018-08-31T09:02:59.632Z,23.90
2018-08-31T09:05:27.868Z,24.50
2018-08-31T09:07:56.027Z,25.20
2018-08-31T09:10:24.224Z,24.80
2018-08-31T09:12:52.424Z,24.20
2018-08-31T09:15:20.637Z,24.20
2018-08-31T09:17:49.853Z,24.20
2018-08-31T09:20:18.096Z,24.80
2018-08-31T09:22:46.206Z,25.40
2018-08-31T09:25:14.417Z,26.10
2018-08-31T09:27:42.563Z,26.80
2018-08-31T09:30:16.339Z,27.40
2018-08-31T09:32:44.699Z,27.60
2018-08-31T09:35:13.119Z,27.30
2018-08-31T09:37:41.407Z,28.00
2018-08-31T09:40:09.731Z,27.90
2018-08-31T09:42:38.027Z,27.40
2018-08-31T09:45:06.334Z,28.20
2018-08-31T09:47:34.817Z,28.00
2018-08-31T09:50:03.118Z,28.50
2018-08-31T09:52:31.478Z,27.80
2018-08-31T09:54:59.796Z,29.60
2018-08-31T09:57:28.184Z,29.90
2018-08-31T09:59:56.507Z,29.40
2018-08-31T10:02:24.820Z,29.00
2018-08-31T10:04:53.043Z,29.00
2018-08-31T10:07:21.473Z,29.10
2018-08-31T10:09:50.027Z,29.70
2018-08-31T10:12:18.529Z,31.00
2018-08-31T10:14:46.819Z,31.70
2018-08-31T10:17:15.380Z,31.80
2018-08-31T10:19:43.742Z,30.60
2018-08-31T10:22:12.219Z,29.00
2018-08-31T10:24:40.547Z,27.40
2018-08-31T10:27:09.557Z,26.80
2018-08-31T10:29:37.977Z,26.10
2018-08-31T10:32:06.388Z,23.70
2018-08-31T10:34:34.675Z,23.30
2018-08-31T10:37:02.906Z,23.60
2018-08-31T10:39:31.118Z,24.10
2018-08-31T10:41:59.319Z,24.20
2018-08-31T10:44:27.489Z,24.00
2018-08-31T10:46:55.758Z,25.40
2018-08-31T10:49:23.963Z,26.50
2018-08-31T10:51:52.221Z,27.00
2018-08-31T10:54:20.439Z,27.90
2018-08-31T10:56:48.659Z,28.80
2018-08-31T10:59:16.891Z,28.60
2018-08-31T11:01:45.112Z,28.70
2018-08-31T11:04:13.302Z,29.10
2018-08-31T11:06:41.571Z,30.10
2018-08-31T11:09:09.797Z,30.40
2018-08-31T11:11:38.457Z,30.60
2018-08-31T11:14:06.760Z,31.00
2018-08-31T11:16:34.955Z,31.00
2018-08-31T11:19:03.675Z,30.90
2018-08-31T11:21:31.971Z,29.80
2018-08-31T11:24:00.171Z,30.10
2018-08-31T11:26:28.379Z,30.00
2018-08-31T11:28:56.579Z,29.70
2018-08-31T11:31:24.868Z,30.10
2018-08-31T11:33:53.100Z,28.60
2018-08-31T11:36:21.291Z,28.30
2018-08-31T11:38:49.477Z,28.60
2018-08-31T11:41:17.721Z,28.20
2018-08-31T11:43:45.977Z,29.20
2018-08-31T11:46:14.239Z,29.30
2018-08-31T11:48:42.455Z,29.80
2018-08-31T11:51:10.626Z,29.30
2018-08-31T11:53:39.140Z,28.70
2018-08-31T11:56:07.328Z,29.40
2018-08-31T11:58:35.504Z,29.70
2018-08-31T12:01:03.708Z,30.50
2018-08-31T12:03:31.916Z,30.60
2018-08-31T12:06:00.144Z,30.90
2018-08-31T12:08:28.355Z,31.40
2018-08-31T12:10:56.582Z,31.30
2018-08-31T12:13:24.804Z,31.40
2018-08-31T12:15:53.133Z,30.10
2018-08-31T12:18:21.366Z,30.60
2018-08-31T12:20:49.570Z,30.80
2018-08-31T12:23:17.781Z,30.80
2018-08-31T12:25:46.063Z,31.60
2018-08-31T12:28:14.357Z,31.50
2018-08-31T12:30:42.583Z,31.00
2018-08-31T12:33:10.796Z,31.10
2018-08-31T12:35:39.166Z,30.30
2018-08-31T12:38:07.517Z,29.80
2018-08-31T12:40:36.064Z,29.00
2018-08-31T12:43:04.272Z,28.30
2018-08-31T12:45:32.535Z,28.60
2018-08-31T12:48:00.806Z,29.00
2018-08-31T12:50:29.036Z,29.90
2018-08-31T12:52:57.215Z,29.60
2018-08-31T12:55:25.413Z,29.00
2018-08-31T12:57:53.583Z,30.00
2018-08-31T13:00:21.780Z,30.70
2018-08-31T13:02:49.990Z,29.70
2018-08-31T13:05:18.249Z,28.70
2018-08-31T13:07:46.424Z,27.60
2018-08-31T13:10:14.619Z,26.90
2018-08-31T13:12:42.805Z,27.30
2018-08-31T13:15:11.031Z,27.60
2018-08-31T13:17:39.268Z,28.10
2018-08-31T13:20:07.586Z,27.50
2018-08-31T13:22:35.831Z,26.20
2018-08-31T13:25:04.019Z,26.70
2018-08-31T13:27:32.291Z,26.90
2018-08-31T13:30:00.473Z,27.30
2018-08-31T13:32:28.750Z,28.00
2018-08-31T13:34:56.999Z,28.30
2018-08-31T13:37:25.221Z,29.00
2018-08-31T13:39:53.575Z,29.30
2018-08-31T13:42:21.831Z,29.20
2018-08-31T13:44:50.067Z,28.00
2018-08-31T13:47:18.229Z,27.40
2018-08-31T13:49:46.468Z,26.40
2018-08-31T13:52:14.721Z,25.90
2018-08-31T13:54:42.898Z,25.90
2018-08-31T13:57:11.082Z,25.80
2018-08-31T13:59:39.281Z,25.60
2018-08-31T14:02:07.469Z,25.30
2018-08-31T14:04:35.655Z,25.00
2018-08-31T14:07:03.851Z,25.10
2018-08-31T14:09:32.072Z,25.10
2018-08-31T14:12:00.232Z,25.50
2018-08-31T14:14:28.407Z,25.80
2018-08-31T14:16:56.591Z,25.90
2018-08-31T14:19:24.772Z,26.00
2018-08-31T14:21:53.014Z,25.60
2018-08-31T14:24:21.204Z,25.30
2018-08-31T14:26:49.399Z,25.40
2018-08-31T14:29:20.037Z,24.90
2018-08-31T14:31:48.177Z,24.20
2018-08-31T14:34:16.330Z,24.10
2018-08-31T14:36:44.528Z,24.30
2018-08-31T14:39:12.710Z,24.10
2018-08-31T14:41:40.880Z,24.40
2018-08-31T14:44:09.384Z,24.60
2018-08-31T14:46:37.711Z,24.90
2018-08-31T14:49:06.446Z,24.70
2018-08-31T14:51:34.608Z,24.50
2018-08-31T14:54:02.836Z,24.70
2018-08-31T14:56:31.346Z,24.60
2018-08-31T14:59:00.747Z,24.50
2018-08-31T15:01:28.912Z,24.30
2018-08-31T15:03:57.161Z,24.40
2018-08-31T15:06:25.293Z,24.50
2018-08-31T15:08:53.456Z,24.60
2018-08-31T15:11:21.625Z,24.50
2018-08-31T15:13:49.819Z,24.50
2018-08-31T15:16:18.007Z,24.60
2018-08-31T15:18:46.180Z,24.30
2018-08-31T15:21:14.411Z,24.00
2018-08-31T15:23:42.632Z,24.00
2018-08-31T15:26:10.873Z,24.10
2018-08-31T15:28:39.047Z,24.10
2018-08-31T15:31:07.240Z,24.00
2018-08-31T15:33:35.401Z,23.90
2018-08-31T15:36:03.567Z,23.80
2018-08-31T15:38:31.772Z,23.90
2018-08-31T15:40:59.979Z,23.80
2018-08-31T15:43:28.192Z,23.90
2018-08-31T15:45:56.360Z,23.70
2018-08-31T15:48:24.575Z,23.80
2018-08-31T15:50:52.809Z,23.70
2018-08-31T15:53:21.004Z,23.70
2018-08-31T15:55:49.194Z,23.60
2018-08-31T15:58:17.350Z,23.80
2018-08-31T16:00:45.515Z,23.50
2018-08-31T16:03:13.714Z,23.20
2018-08-31T16:05:41.920Z,23.00
2018-08-31T16:08:10.127Z,22.90
2018-08-31T16:10:38.320Z,23.10
2018-08-31T16:13:06.508Z,23.20
2018-08-31T16:15:34.707Z,23.10
2018-08-31T16:18:02.876Z,23.20
2018-08-31T16:20:31.075Z,23.20
2018-08-31T16:22:59.274Z,23.20
2018-08-31T16:25:27.498Z,23.10
2018-08-31T16:27:55.672Z,23.10
2018-08-31T16:30:24.216Z,23.00
2018-08-31T16:32:52.515Z,22.90
2018-08-31T16:35:20.675Z,23.00
2018-08-31T16:37:48.850Z,23.00
2018-08-31T16:40:17.018Z,22.90
2018-08-31T16:42:45.241Z,22.80
2018-08-31T16:45:13.629Z,22.90
2018-08-31T16:47:41.804Z,22.80
2018-08-31T16:50:10.163Z,22.80
2018-08-31T16:52:38.490Z,22.80
2018-08-31T17:00:02.562Z,22.10
2018-08-31T17:02:30.752Z,22.20
2018-08-31T17:04:58.935Z,22.20
2018-08-31T17:07:27.129Z,22.20
2018-08-31T17:09:55.325Z,22.10
2018-08-31T17:12:23.519Z,22.20
2018-08-31T17:14:51.687Z,22.20
2018-08-31T17:17:19.885Z,22.00
2018-08-31T17:19:48.343Z,21.70
2018-08-31T17:22:16.660Z,21.90
2018-08-31T17:24:44.804Z,21.90
2018-08-31T17:27:18.463Z,21.70
2018-08-31T17:29:47.944Z,21.40
2018-08-31T17:32:21.693Z,21.40
2018-08-31T17:34:55.463Z,21.50
2018-08-31T17:37:28.921Z,21.50
2018-08-31T17:39:57.528Z,21.50
2018-08-31T17:42:27.208Z,21.50
2018-08-31T17:44:55.595Z,21.30
2018-08-31T17:47:23.811Z,21.40
2018-08-31T17:49:51.996Z,21.40
2018-08-31T17:52:20.337Z,21.40
2018-08-31T17:54:48.616Z,21.40
2018-08-31T17:57:16.819Z,21.30
2018-08-31T17:59:44.977Z,21.20
2018-08-31T18:02:13.112Z,21.10
2018-08-31T18:04:41.273Z,21.00
2018-08-31T18:07:09.459Z,20.80
2018-08-31T18:09:37.772Z,20.80
2018-08-31T18:12:05.839Z,20.70
2018-08-31T18:14:34.057Z,20.70
2018-08-31T18:17:02.581Z,20.80
2018-08-31T18:19:30.775Z,20.70
2018-08-31T18:21:58.970Z,20.60
2018-08-31T18:24:27.412Z,20.60
2018-08-31T18:26:56.100Z,20.60
2018-08-31T18:29:24.349Z,20.50
2018-08-31T18:31:52.519Z,20.40
2018-08-31T18:34:20.915Z,20.40
2018-08-31T18:36:49.335Z,20.30
2018-08-31T18:39:17.499Z,20.20
2018-08-31T18:41:45.797Z,20.20
2018-08-31T18:44:13.982Z,20.10
2018-08-31T18:46:42.231Z,20.20
2018-08-31T18:49:10.358Z,20.00
2018-08-31T18:51:38.553Z,19.90
2018-08-31T18:54:06.734Z,19.80
2018-08-31T18:56:34.907Z,19.80
2018-08-31T18:59:03.076Z,19.80
2018-08-31T19:01:31.239Z,19.70
2018-08-31T19:03:59.444Z,19.70
2018-08-31T19:06:27.608Z,19.60
2018-08-31T19:08:55.780Z,19.60
2018-08-31T19:11:24.040Z,19.50
2018-08-31T19:13:52.494Z,19.40
2018-08-31T19:16:20.654Z,19.30
2018-08-31T19:18:48.903Z,19.30
2018-08-31T19:21:17.132Z,19.40
2018-08-31T19:23:45.346Z,19.30
2018-08-31T19:26:13.621Z,19.10
2018-08-31T19:28:43.388Z,19.10
2018-08-31T19:31:11.609Z,19.10
2018-08-31T19:33:39.855Z,19.10
2018-08-31T19:36:08.109Z,19.00
2018-08-31T19:38:36.472Z,18.90
2018-08-31T19:41:05.158Z,18.80
2018-08-31T19:43:33.330Z,18.80
2018-08-31T19:46:02.388Z,18.70
2018-08-31T19:48:30.895Z,18.70
2018-08-31T19:50:59.438Z,18.60
2018-08-31T19:53:27.838Z,18.60
2018-08-31T19:55:56.192Z,18.60
2018-08-31T19:58:24.557Z,18.60
2018-08-31T20:00:53.063Z,18.50
2018-08-31T20:03:21.428Z,18.40
2018-08-31T20:05:49.654Z,18.30
2018-08-31T20:08:17.867Z,18.40
2018-08-31T20:10:46.297Z,18.30
2018-08-31T20:13:16.368Z,18.30
2018-08-31T20:15:48.277Z,18.30
2018-08-31T20:18:20.862Z,18.20
2018-08-31T20:20:51.406Z,18.00
2018-08-31T20:23:20.992Z,18.00
2018-08-31T20:25:49.337Z,17.90
2018-08-31T20:28:17.706Z,17.80
2018-08-31T20:30:48.935Z,17.80
2018-08-31T20:33:18.486Z,17.70
2018-08-31T20:35:49.181Z,17.70
2018-08-31T20:38:17.604Z,17.60
2018-08-31T20:40:45.912Z,17.60
2018-08-31T20:43:14.398Z,17.60
2018-08-31T20:45:42.664Z,17.60
2018-08-31T20:48:11.656Z,17.60
2018-08-31T20:50:40.427Z,17.60
2018-08-31T20:53:08.934Z,17.40
2018-08-31T20:55:37.234Z,17.50
2018-08-31T20:58:07.278Z,17.40
2018-08-31T21:00:35.725Z,17.30
2018-08-31T21:03:04.298Z,17.20
2018-08-31T21:05:34.126Z,17.20
2018-08-31T21:08:03.207Z,17.10
2018-08-31T21:10:31.622Z,17.00
2018-08-31T21:12:59.957Z,17.00
2018-08-31T21:15:28.247Z,17.00
2018-08-31T21:17:56.590Z,16.90
2018-08-31T21:20:24.826Z,16.80
2018-08-31T21:22:54.528Z,16.80
2018-08-31T21:25:24.034Z,16.70
2018-08-31T21:27:53.554Z,16.80
2018-08-31T21:30:22.581Z,16.70
2018-08-31T21:32:51.382Z,16.70
2018-08-31T21:35:19.855Z,16.70
2018-08-31T21:37:49.939Z,16.60
2018-08-31T21:40:18.583Z,16.50
2018-08-31T21:42:47.222Z,16.40
2018-08-31T21:45:15.473Z,16.30
2018-08-31T21:47:43.718Z,16.20
2018-08-31T21:50:12.086Z,16.20
2018-08-31T21:52:40.438Z,16.20
2018-08-31T21:55:08.828Z,16.10
2018-08-31T21:57:37.338Z,16.10
2018-08-31T22:00:08.835Z,16.10
2018-08-31T22:02:37.078Z,16.00
2018-08-31T22:05:05.420Z,16.00
2018-08-31T22:07:33.859Z,15.90
2018-08-31T22:10:02.199Z,16.00
2018-08-31T22:12:30.508Z,15.90
2018-08-31T22:14:58.776Z,15.90
2018-08-31T22:17:27.104Z,15.90
2018-08-31T22:19:55.347Z,15.80
2018-08-31T22:22:23.694Z,15.80
2018-08-31T22:24:52.010Z,15.70
2018-08-31T22:27:20.257Z,15.70
2018-08-31T22:29:48.463Z,15.60
2018-08-31T22:32:16.601Z,15.60
2018-08-31T22:34:44.834Z,15.60
2018-08-31T22:37:13.081Z,15.50
2018-08-31T22:39:41.270Z,15.50
2018-08-31T22:42:09.424Z,15.50
2018-08-31T22:44:37.661Z,15.50
2018-08-31T22:47:06.137Z,15.40
2018-08-31T22:49:34.297Z,15.30
2018-08-31T22:52:02.515Z,15.30
2018-08-31T22:54:30.696Z,15.30
2018-08-31T22:56:58.849Z,15.30
2018-08-31T22:59:27.030Z,15.20
2018-08-31T23:01:55.201Z,15.20
2018-08-31T23:04:23.403Z,15.10
2018-08-31T23:06:51.608Z,15.10
2018-08-31T23:09:19.782Z,15.00
2018-08-31T23:11:47.995Z,15.00
2018-08-31T23:14:16.237Z,15.00
2018-08-31T23:16:44.444Z,14.90
2018-08-31T23:19:12.623Z,14.80
2018-08-31T23:21:40.819Z,14.70
2018-08-31T23:24:09.016Z,14.70
2018-08-31T23:26:37.223Z,14.70
2018-08-31T23:29:05.650Z,14.70
2018-08-31T23:31:33.830Z,14.70
2018-08-31T23:34:01.999Z,14.70
2018-08-31T23:36:30.158Z,14.70
2018-08-31T23:38:58.380Z,14.60
2018-08-31T23:41:26.569Z,14.70
2018-08-31T23:43:54.812Z,14.70
2018-08-31T23:46:22.965Z,14.70
2018-08-31T23:48:51.134Z,14.60
2018-08-31T23:51:19.283Z,14.50
2018-08-31T23:53:47.447Z,14.50
2018-08-31T23:56:15.634Z,14.50
2018-08-31T23:58:43.957Z,14.50
